Accueil
METAR-TAF:

METAR-TAF

Aéroports :

Aéroport international de Kosrae

Kosrae, Micronésie

latitude: 05-21N, longitude: 162-57E, altitude: 3 m

Observation

Le bulletin a été fait il y a 19 heures et 28 minutes, à 00:55 UTC
Vent 10 kt de est
Température 31°C
Humidité 71%
Pression 1007 hPa
Visibilité: 16.1 km
Nuages fragmentés à une hauteur de 2100 ft, Cumulus congestus.
Nuages fragmentés à une hauteur de 13000 ft
Ciel couvert à une hauteur de 30000 ft

METAR: PTSA 200055Z 08010KT 10SM BKN021TCU BKN130 OVC300 31/25 A2973 RMK TCU NE AND W-NW LAST

Heure: 07:23 (20:23 UTC)

Prévision

Le bulletin a été fait il y a 21 heures et 2 minutes, à 23:21 UTC
Prévision valable du 20 à 00 UTC au 20 à 24 UTC
Vent 10 kt de est
Visibilité: 10 km
Nuages épars à une hauteur de 1900 ft
Nuages épars à une hauteur de 5000 ft

TAF: PTSA 192321Z 2000/2024 08010KT P6SM SCT019 SCT050

Observations et prévisions météorologiques de plus de 4000 aéroports (messages METAR et TAF).

Les stations disponibles sont représentées par des disques jaunes et rouges sur la carte.

Passer la souris dessus pour voir le nom de la station.

Cliquer dessus pour voir les observations et prévisions météorologiques.

Pour changer de carte: cliquez sur les boutons verts avec une croix noire pour zoomer, sur le bouton vert avec un tiret pour effectuer un zoom arrière, ou sur les flèches vertes pour les cartes adjacentes.


METAR-TAF: